Time;durP1;ratioP1;P1;durP2;ratioP2;P2;SDS_P1;SDS_P2;PMS_P1;PMS_P2;Temp;Humidity;BMP_temperature;BMP_pressure;BME280_temperature;BME280_humidity;BME280_pressure;Samples;Min_cycle;Max_cycle;Signal;HPM_P1;HPM_P2
2021/08/13 00:01:06;;;;;;;8.16;6.32;;;;;;;18.97;88.77;99607.59;2001215;78;22097;-83
2021/08/13 00:04:09;;;;;;;11.86;6.65;;;;;;;18.96;89.06;99595.34;1998925;81;20188;-83
2021/08/13 00:07:12;;;;;;;10.70;6.89;;;;;;;18.95;89.44;99593.63;2000270;81;20175;-82
2021/08/13 00:10:14;;;;;;;8.49;6.30;;;;;;;18.94;89.79;99587.53;1998513;81;20585;-83
2021/08/13 00:13:17;;;;;;;7.60;5.71;;;;;;;18.95;89.88;99576.09;1998986;81;20194;-83
2021/08/13 00:16:20;;;;;;;7.10;6.06;;;;;;;18.99;89.99;99571.56;2000183;81;23117;-83
2021/08/13 00:19:22;;;;;;;11.89;6.65;;;;;;;18.98;90.00;99572.47;2004153;81;20207;-83
2021/08/13 00:22:25;;;;;;;8.96;6.29;;;;;;;19.00;89.77;99584.66;2002481;81;20170;-83
2021/08/13 00:25:28;;;;;;;9.10;6.44;;;;;;;19.03;89.76;99586.34;2003113;81;20178;-83
2021/08/13 00:28:31;;;;;;;11.14;6.80;;;;;;;18.93;90.38;99619.16;2002684;81;20247;-83
2021/08/13 00:31:34;;;;;;;12.49;6.90;;;;;;;18.90;90.66;99664.00;2001330;79;25098;-83
2021/08/13 00:34:38;;;;;;;10.11;6.55;;;;;;;18.96;90.40;99680.44;1999072;81;20203;-83
2021/08/13 00:37:41;;;;;;;8.93;7.41;;;;;;;19.08;89.89;99681.78;1999404;81;20220;-84
2021/08/13 00:40:43;;;;;;;12.34;7.66;;;;;;;19.21;89.14;99664.66;2003910;81;20171;-83
2021/08/13 00:43:46;;;;;;;12.07;7.45;;;;;;;19.33;88.27;99661.56;2001162;81;20243;-84
2021/08/13 00:46:48;;;;;;;12.91;7.11;;;;;;;19.42;87.04;99651.66;2002397;79;22026;-85
2021/08/13 00:49:51;;;;;;;9.93;7.20;;;;;;;19.45;87.24;99639.22;2006244;81;20202;-84
2021/08/13 00:52:54;;;;;;;12.80;7.28;;;;;;;19.47;87.20;99626.00;2005609;81;20760;-84
2021/08/13 00:55:57;;;;;;;10.69;7.46;;;;;;;19.50;87.18;99637.28;2005825;81;20174;-83
2021/08/13 00:59:00;;;;;;;9.14;7.06;;;;;;;19.48;87.62;99652.28;2004962;81;20251;-84
2021/08/13 01:02:03;;;;;;;7.68;6.88;;;;;;;19.48;87.81;99647.00;2000716;78;20919;-84
2021/08/13 01:05:06;;;;;;;8.94;7.45;;;;;;;19.52;87.57;99645.09;1999078;81;20233;-84
2021/08/13 01:08:09;;;;;;;12.45;6.88;;;;;;;19.55;87.41;99635.34;2000888;81;20232;-86
2021/08/13 01:11:26;;;;;;;13.04;7.38;;;;;;;19.58;86.94;99632.63;2000287;81;20199;-83
2021/08/13 01:14:47;;;;;;;12.60;6.71;;;;;;;19.60;86.83;99620.25;2000232;81;20204;-84
2021/08/13 01:18:08;;;;;;;13.05;6.57;;;;;;;19.57;86.82;99619.50;2004540;78;23377;-84
2021/08/13 01:21:25;;;;;;;8.34;6.60;;;;;;;19.49;87.49;99625.00;2006080;81;20217;-84
2021/08/13 01:24:32;;;;;;;14.07;7.03;;;;;;;19.47;87.49;99621.59;2007053;81;20238;-85
2021/08/13 01:27:41;;;;;;;10.43;6.41;;;;;;;19.48;87.39;99615.41;2008223;81;20288;-83
2021/08/13 01:30:44;;;;;;;10.36;7.10;;;;;;;19.45;87.40;99618.16;2005007;81;20167;-83
2021/08/13 01:33:50;;;;;;;10.44;6.81;;;;;;;19.41;87.48;99613.06;2000422;79;23193;-84
2021/08/13 01:36:58;;;;;;;9.48;7.20;;;;;;;19.44;87.28;99620.84;2000289;81;20191;-84
2021/08/13 01:40:03;;;;;;;11.80;7.18;;;;;;;19.40;87.84;99619.25;2000278;81;20741;-83
2021/08/13 01:43:07;;;;;;;15.90;6.74;;;;;;;19.42;87.79;99623.53;2001108;81;20192;-83
2021/08/13 01:46:12;;;;;;;13.75;6.90;;;;;;;19.45;87.99;99633.09;2005942;78;20457;-84
2021/08/13 01:49:17;;;;;;;14.36;7.81;;;;;;;19.43;88.03;99633.16;2006817;81;20208;-85
2021/08/13 01:52:22;;;;;;;7.99;6.66;;;;;;;19.46;87.89;99634.81;2006996;81;20658;-84
2021/08/13 01:55:26;;;;;;;9.56;6.66;;;;;;;19.45;88.01;99631.31;2006022;81;20162;-84
2021/08/13 01:58:29;;;;;;;8.06;6.44;;;;;;;19.43;87.96;99627.03;2002052;81;20205;-83
2021/08/13 02:01:32;;;;;;;9.44;6.78;;;;;;;19.41;88.10;99626.22;2004308;78;22107;-84
2021/08/13 02:04:36;;;;;;;13.00;6.72;;;;;;;19.33;88.52;99629.97;2001820;81;20194;-84
2021/08/13 02:07:40;;;;;;;8.86;6.71;;;;;;;19.30;88.78;99648.53;2003111;81;20269;-84
2021/08/13 02:10:45;;;;;;;10.45;7.22;;;;;;;19.26;89.02;99646.06;2002458;81;20269;-84
2021/08/13 02:13:49;;;;;;;10.50;6.35;;;;;;;19.28;89.25;99641.59;2002539;81;20644;-85
2021/08/13 02:16:53;;;;;;;7.80;6.18;;;;;;;19.30;89.10;99637.13;2001988;81;20207;-84
2021/08/13 02:20:09;;;;;;;6.91;6.31;;;;;;;19.35;88.97;99629.06;2001031;81;20245;-84
2021/08/13 02:23:12;;;;;;;12.38;6.88;;;;;;;19.33;88.90;99624.72;2000917;81;20204;-84
2021/08/13 02:26:14;;;;;;;9.30;7.09;;;;;;;19.29;88.75;99625.75;2000798;81;20203;-84
2021/08/13 02:29:17;;;;;;;9.13;6.60;;;;;;;19.28;88.76;99618.75;2002636;81;20175;-84
2021/08/13 02:32:22;;;;;;;9.09;6.60;;;;;;;19.28;88.84;99616.13;2000875;79;21646;-85
2021/08/13 02:35:24;;;;;;;8.99;6.88;;;;;;;19.30;88.59;99623.97;2002340;81;20208;-84
2021/08/13 02:38:32;;;;;;;9.10;7.05;;;;;;;19.24;88.72;99622.44;2004100;81;20171;-83
2021/08/13 02:41:36;;;;;;;9.94;6.62;;;;;;;19.24;88.92;99630.31;2001682;81;20175;-84
2021/08/13 02:44:43;;;;;;;8.26;6.82;;;;;;;19.21;89.12;99640.09;2002563;81;20237;-84
2021/08/13 02:47:47;;;;;;;8.13;6.54;;;;;;;19.16;89.44;99637.63;2001445;78;23521;-84
2021/08/13 02:50:52;;;;;;;9.93;6.85;;;;;;;19.14;89.79;99642.09;2000724;81;20218;-84
2021/08/13 02:53:56;;;;;;;8.04;6.70;;;;;;;19.15;89.77;99645.56;2001035;81;20203;-84
2021/08/13 02:57:01;;;;;;;8.15;6.39;;;;;;;19.12;89.78;99648.31;2000644;81;20197;-84
2021/08/13 03:00:06;;;;;;;7.60;6.55;;;;;;;19.13;89.77;99634.25;2002164;81;20252;-84
2021/08/13 03:03:11;;;;;;;8.80;6.69;;;;;;;19.13;89.63;99640.38;1999641;81;20619;-84
2021/08/13 03:06:17;;;;;;;11.79;6.97;;;;;;;19.11;89.64;99643.97;2003079;81;20186;-84
2021/08/13 03:09:21;;;;;;;9.73;6.70;;;;;;;19.10;89.86;99640.47;2000634;81;20227;-83
2021/08/13 03:12:25;;;;;;;7.74;6.71;;;;;;;19.10;90.01;99634.34;2000444;81;20193;-85
2021/08/13 03:15:28;;;;;;;10.71;6.64;;;;;;;19.09;90.08;99633.50;1999544;79;24323;-84
2021/08/13 03:18:31;;;;;;;8.10;6.49;;;;;;;19.05;90.11;99634.53;1999635;81;20227;-84
2021/08/13 03:21:33;;;;;;;8.07;5.95;;;;;;;19.02;89.84;99639.88;1999623;81;20197;-83
2021/08/13 03:24:36;;;;;;;7.10;5.85;;;;;;;18.93;89.74;99642.84;2002891;81;20199;-83
2021/08/13 03:27:41;;;;;;;10.96;6.29;;;;;;;18.80;90.02;99645.03;1999977;81;20202;-83
2021/08/13 03:30:45;;;;;;;8.71;6.82;;;;;;;18.70;90.38;99641.00;2000460;78;22689;-84
2021/08/13 03:33:48;;;;;;;9.34;6.22;;;;;;;18.70;90.74;99641.84;2004702;81;20349;-83
2021/08/13 03:36:50;;;;;;;8.39;6.04;;;;;;;18.70;90.89;99639.22;2004922;81;20615;-83
2021/08/13 03:39:53;;;;;;;11.00;6.44;;;;;;;18.73;91.01;99637.41;2004940;81;20259;-83
2021/08/13 03:42:55;;;;;;;10.39;6.11;;;;;;;18.72;91.09;99644.44;2005181;81;20200;-84
2021/08/13 03:45:58;;;;;;;8.26;6.14;;;;;;;18.70;91.25;99636.59;2004377;81;20182;-85
2021/08/13 03:49:01;;;;;;;6.97;6.28;;;;;;;18.71;90.98;99638.31;2005123;81;20206;-84
2021/08/13 03:52:03;;;;;;;9.09;6.85;;;;;;;18.67;90.70;99638.44;2005750;81;20178;-84
2021/08/13 03:55:06;;;;;;;11.19;6.28;;;;;;;18.63;90.49;99642.09;2005131;81;20272;-84
2021/08/13 03:58:09;;;;;;;10.23;6.70;;;;;;;18.53;90.40;99643.28;2004424;81;20247;-84
2021/08/13 04:01:11;;;;;;;9.93;6.29;;;;;;;18.48;90.58;99648.69;2007413;81;20279;-84
2021/08/13 04:04:14;;;;;;;7.26;6.41;;;;;;;18.42;90.80;99649.75;2004720;81;20211;-84
2021/08/13 04:07:17;;;;;;;8.59;6.64;;;;;;;18.39;90.83;99654.25;2005313;81;20170;-83
2021/08/13 04:10:19;;;;;;;8.55;6.82;;;;;;;18.33;91.03;99646.56;2006054;81;20208;-84
2021/08/13 04:13:22;;;;;;;9.32;6.50;;;;;;;18.30;91.09;99646.63;2004571;81;20280;-84
2021/08/13 04:16:24;;;;;;;6.57;5.78;;;;;;;18.26;91.12;99647.66;2004348;81;20228;-82
2021/08/13 04:19:27;;;;;;;9.16;5.93;;;;;;;18.22;91.11;99643.41;2005025;81;20196;-84
2021/08/13 04:22:29;;;;;;;8.99;6.18;;;;;;;18.19;90.95;99646.13;2004961;81;20192;-84
2021/08/13 04:25:32;;;;;;;7.13;5.68;;;;;;;18.16;90.91;99641.84;2005692;81;20194;-84
2021/08/13 04:28:35;;;;;;;7.36;6.09;;;;;;;18.11;90.98;99643.72;2005396;81;20276;-83
2021/08/13 04:31:37;;;;;;;6.86;6.28;;;;;;;18.05;90.89;99651.81;2002362;79;24275;-84
2021/08/13 04:34:40;;;;;;;10.55;6.65;;;;;;;18.01;91.19;99658.94;2002070;81;20236;-84
2021/08/13 04:37:42;;;;;;;7.47;5.99;;;;;;;17.99;91.28;99660.75;2001928;81;20203;-83
2021/08/13 04:40:45;;;;;;;7.54;6.03;;;;;;;17.98;91.21;99660.81;2001283;81;20167;-83
2021/08/13 04:43:47;;;;;;;8.04;6.21;;;;;;;17.96;91.32;99663.47;1999215;81;20188;-83
2021/08/13 04:46:50;;;;;;;7.63;5.88;;;;;;;17.92;91.57;99664.44;2003897;78;23066;-84
2021/08/13 04:49:52;;;;;;;8.60;5.89;;;;;;;17.89;91.52;99669.81;2005935;81;20568;-83
2021/08/13 04:52:55;;;;;;;9.77;5.70;;;;;;;17.90;91.69;99668.91;2006053;81;20190;-84
2021/08/13 04:55:58;;;;;;;6.93;5.59;;;;;;;17.89;91.70;99680.31;2006056;81;20479;-84
2021/08/13 04:59:00;;;;;;;8.69;6.11;;;;;;;17.95;91.73;99681.88;2005120;81;20310;-83
2021/08/13 05:02:03;;;;;;;9.94;6.29;;;;;;;17.96;91.65;99689.75;2002610;79;21351;-84
2021/08/13 05:05:06;;;;;;;8.60;6.34;;;;;;;17.99;91.77;99694.91;1999668;81;20354;-83
2021/08/13 05:08:09;;;;;;;7.47;6.46;;;;;;;18.05;91.87;99693.84;2000140;81;20233;-84
2021/08/13 05:11:12;;;;;;;7.59;5.56;;;;;;;18.09;91.78;99691.09;2000304;81;20617;-84
2021/08/13 05:14:14;;;;;;;8.23;5.91;;;;;;;18.18;91.68;99694.34;1999302;81;20713;-83
2021/08/13 05:17:17;;;;;;;6.90;6.20;;;;;;;18.23;91.50;99697.69;2000007;79;32303;-83
2021/08/13 05:20:20;;;;;;;7.01;6.13;;;;;;;18.27;91.20;99707.19;1998568;81;20577;-83
2021/08/13 05:23:22;;;;;;;6.39;5.78;;;;;;;18.31;91.16;99700.94;1996274;81;20261;-83
2021/08/13 05:26:25;;;;;;;9.45;6.70;;;;;;;18.39;91.25;99698.94;1997236;81;20187;-82
2021/08/13 05:29:27;;;;;;;7.91;5.80;;;;;;;18.49;91.11;99703.03;1995566;81;20221;-81
2021/08/13 05:32:30;;;;;;;8.31;6.51;;;;;;;18.58;90.84;99701.84;1998331;78;22229;-81
2021/08/13 05:35:36;;;;;;;6.85;5.90;;;;;;;18.67;90.55;99713.00;1999957;81;20191;-81
2021/08/13 05:38:38;;;;;;;9.74;7.07;;;;;;;18.80;90.18;99702.91;2000248;81;20195;-83
2021/08/13 05:41:41;;;;;;;7.41;6.39;;;;;;;18.95;89.74;99710.28;2002545;81;20212;-85
2021/08/13 05:44:43;;;;;;;10.00;6.51;;;;;;;19.11;89.04;99707.16;2004408;81;20264;-83
2021/08/13 05:47:46;;;;;;;7.70;5.80;;;;;;;19.30;88.27;99710.88;2002339;79;23057;-82
2021/08/13 05:50:49;;;;;;;6.69;6.06;;;;;;;19.60;87.10;99709.81;1998744;81;20195;-82
2021/08/13 05:53:54;;;;;;;8.55;6.21;;;;;;;19.91;85.56;99711.31;1996830;81;20183;-83
2021/08/13 05:56:57;;;;;;;7.34;5.47;;;;;;;20.18;84.34;99714.69;1997823;81;20176;-82
2021/08/13 06:00:00;;;;;;;6.41;5.60;;;;;;;20.55;82.90;99713.28;1997204;81;20236;-81
2021/08/13 06:03:05;;;;;;;7.04;6.19;;;;;;;20.88;81.45;99718.97;1994475;78;20203;-81
2021/08/13 06:06:08;;;;;;;6.99;5.94;;;;;;;21.24;79.85;99719.22;1994569;81;20243;-80
2021/08/13 06:09:11;;;;;;;8.34;5.97;;;;;;;21.54;78.11;99725.81;1994683;81;20663;-80
2021/08/13 06:12:14;;;;;;;7.47;5.86;;;;;;;21.88;76.38;99729.59;1994026;81;20207;-80
2021/08/13 06:15:17;;;;;;;7.82;6.04;;;;;;;22.28;75.36;99731.34;1994440;81;20236;-75
2021/08/13 06:18:20;;;;;;;11.07;6.43;;;;;;;22.65;74.47;99734.88;1994407;81;20382;-79
2021/08/13 06:21:23;;;;;;;8.46;5.60;;;;;;;22.88;73.56;99738.13;1993886;81;20650;-81
2021/08/13 06:24:27;;;;;;;8.06;5.45;;;;;;;22.91;73.15;99737.13;1994021;81;20663;-80
2021/08/13 06:27:29;;;;;;;6.66;5.88;;;;;;;22.86;73.25;99732.06;1993079;81;20256;-80
2021/08/13 06:30:32;;;;;;;6.71;5.80;;;;;;;22.80;73.62;99745.59;1992250;78;21779;-80
2021/08/13 06:33:34;;;;;;;7.11;5.64;;;;;;;22.94;72.95;99754.66;1998792;81;20315;-79
2021/08/13 06:36:37;;;;;;;6.96;5.46;;;;;;;23.10;72.28;99750.31;1998007;81;20178;-80
2021/08/13 06:39:39;;;;;;;5.79;4.91;;;;;;;23.26;71.72;99755.69;1998689;81;20228;-80
2021/08/13 06:42:42;;;;;;;6.61;5.49;;;;;;;23.28;71.57;99751.19;1999166;81;20204;-80
2021/08/13 06:45:45;;;;;;;8.01;5.45;;;;;;;23.21;71.53;99756.78;1997186;78;25121;-80
2021/08/13 06:48:48;;;;;;;5.13;4.60;;;;;;;23.13;71.80;99760.75;1993981;81;20336;-79
2021/08/13 06:51:50;;;;;;;5.26;4.50;;;;;;;23.10;71.71;99751.16;1993666;81;20557;-79
2021/08/13 06:54:53;;;;;;;6.61;5.28;;;;;;;23.25;71.30;99753.97;1994455;81;21268;-80
2021/08/13 06:57:56;;;;;;;5.99;4.47;;;;;;;23.52;70.54;99755.25;1993659;81;20295;-79
2021/08/13 07:00:59;;;;;;;6.95;4.41;;;;;;;23.84;68.96;99763.31;1994994;78;29532;-79
2021/08/13 07:04:02;;;;;;;8.16;5.07;;;;;;;24.03;67.91;99764.91;1999490;81;20166;-80
2021/08/13 07:07:05;;;;;;;4.95;4.51;;;;;;;24.32;68.00;99766.03;1999136;81;20836;-80
2021/08/13 07:10:09;;;;;;;5.25;4.75;;;;;;;24.41;68.24;99773.47;2002335;81;20905;-81
2021/08/13 07:13:12;;;;;;;6.26;4.82;;;;;;;24.35;68.53;99770.31;1998935;81;20239;-81
2021/08/13 07:16:14;;;;;;;8.63;4.89;;;;;;;24.52;68.31;99782.66;1995591;79;22264;-76
2021/08/13 07:19:17;;;;;;;8.50;4.41;;;;;;;24.73;67.60;99777.94;1992394;81;20304;-75
2021/08/13 07:22:20;;;;;;;6.66;4.70;;;;;;;24.95;67.44;99792.56;1991794;81;20175;-76
2021/08/13 07:25:22;;;;;;;6.53;4.93;;;;;;;25.26;65.74;99778.41;1992617;81;20564;-75
2021/08/13 07:28:25;;;;;;;5.18;4.60;;;;;;;25.63;65.38;99783.34;1992801;81;20220;-76
2021/08/13 07:31:27;;;;;;;5.95;5.09;;;;;;;25.68;63.59;99786.63;1994126;78;24403;-75
2021/08/13 07:34:30;;;;;;;9.52;5.14;;;;;;;25.61;63.91;99789.59;1997547;81;20200;-73
2021/08/13 07:37:32;;;;;;;5.96;4.59;;;;;;;25.67;64.31;99787.50;1997936;81;20505;-75
2021/08/13 07:40:35;;;;;;;9.46;5.15;;;;;;;25.64;64.55;99785.91;1997052;81;20263;-77
2021/08/13 07:43:38;;;;;;;11.71;5.59;;;;;;;25.75;63.88;99788.81;1997614;81;20641;-78
2021/08/13 07:46:40;;;;;;;6.06;4.80;;;;;;;25.96;62.78;99799.09;1993945;79;25461;-76
2021/08/13 07:49:43;;;;;;;8.13;5.26;;;;;;;25.94;63.03;99790.34;1993726;81;20987;-76
2021/08/13 07:52:45;;;;;;;7.65;5.40;;;;;;;25.80;63.58;99793.84;1992753;81;20227;-75
2021/08/13 07:55:49;;;;;;;8.81;5.50;;;;;;;25.67;63.87;99791.03;1991973;81;20187;-75
2021/08/13 07:58:51;;;;;;;7.38;5.72;;;;;;;25.74;63.81;99791.56;1991849;81;20200;-77
2021/08/13 08:01:54;;;;;;;9.48;6.19;;;;;;;25.92;62.63;99801.09;1993827;78;57379;-75
2021/08/13 08:04:56;;;;;;;6.80;5.45;;;;;;;26.05;62.32;99803.88;1996841;81;20755;-76
2021/08/13 08:07:59;;;;;;;5.79;5.31;;;;;;;26.07;61.32;99797.50;1997904;81;20154;-76
2021/08/13 08:11:02;;;;;;;8.23;6.15;;;;;;;26.22;61.11;99798.34;1996517;81;20175;-76
2021/08/13 08:14:05;;;;;;;7.79;6.26;;;;;;;26.31;60.29;99803.09;1997472;81;20228;-77
2021/08/13 08:17:07;;;;;;;6.79;6.05;;;;;;;26.56;59.63;99810.41;1991780;81;21608;-77
2021/08/13 08:20:10;;;;;;;10.93;6.22;;;;;;;26.78;58.99;99816.09;1991245;81;20944;-76
2021/08/13 08:23:13;;;;;;;7.34;5.80;;;;;;;26.86;58.57;99820.06;1991087;81;20207;-77
2021/08/13 08:26:15;;;;;;;8.26;6.30;;;;;;;27.08;58.56;99831.91;1992726;81;20175;-77
2021/08/13 08:29:18;;;;;;;6.45;5.84;;;;;;;27.13;57.35;99828.13;1992657;81;20159;-77
2021/08/13 08:32:21;;;;;;;10.93;6.18;;;;;;;27.26;57.97;99826.31;1994110;78;21803;-78
2021/08/13 08:35:24;;;;;;;6.57;5.95;;;;;;;27.34;56.75;99824.88;1996045;81;20491;-77
2021/08/13 08:38:26;;;;;;;7.44;6.14;;;;;;;27.54;57.02;99820.88;1997039;81;20597;-77
2021/08/13 08:41:29;;;;;;;7.07;6.07;;;;;;;27.73;55.34;99822.31;1996371;81;20206;-76
2021/08/13 08:44:32;;;;;;;6.63;5.82;;;;;;;27.82;54.89;99811.84;1996696;81;20666;-77
2021/08/13 08:47:35;;;;;;;9.64;6.04;;;;;;;28.02;55.86;99815.84;1991295;81;22441;-76
2021/08/13 08:50:40;;;;;;;7.91;5.90;;;;;;;28.16;53.37;99822.84;1991713;81;20222;-74
2021/08/13 08:53:48;;;;;;;8.79;6.59;;;;;;;28.08;53.82;99823.41;1990942;81;20197;-75
2021/08/13 08:56:51;;;;;;;;;;;;;;;28.24;53.45;99829.38;1991276;81;20609;-76
2021/08/13 09:00:15;;;;;;;8.75;5.05;;;;;;;28.52;53.84;99836.31;1990094;81;20063;-76
2021/08/13 09:03:20;;;;;;;8.51;6.31;;;;;;;28.88;54.55;99837.31;1994036;78;24617;-76
2021/08/13 09:06:25;;;;;;;5.88;5.36;;;;;;;29.12;53.71;99838.22;1995607;81;20182;-77
2021/08/13 09:09:27;;;;;;;6.80;5.63;;;;;;;29.16;51.88;99844.19;1996506;81;20337;-77
2021/08/13 09:12:32;;;;;;;9.60;5.89;;;;;;;28.85;52.26;99845.53;1996484;81;20182;-78
2021/08/13 09:15:37;;;;;;;5.88;5.28;;;;;;;28.84;53.13;99834.00;1993781;78;20366;-79
2021/08/13 09:18:40;;;;;;;7.32;5.51;;;;;;;29.02;53.76;99839.00;1991595;81;20163;-79
2021/08/13 09:21:42;;;;;;;5.65;5.15;;;;;;;29.14;52.78;99828.25;1990881;81;20228;-80
2021/08/13 09:24:51;;;;;;;8.90;5.39;;;;;;;29.18;53.18;99837.75;1990462;81;20655;-78
2021/08/13 09:27:54;;;;;;;10.73;6.04;;;;;;;29.45;53.56;99834.00;1990714;81;21260;-77
2021/08/13 09:31:38;;;;;;;8.10;6.18;;;;;;;29.76;52.42;99840.56;1990914;78;21712;-78
2021/08/13 09:34:41;;;;;;;8.65;5.51;;;;;;;29.90;50.74;99834.16;1995206;81;20235;-78
2021/08/13 09:37:48;;;;;;;7.61;5.70;;;;;;;29.81;50.35;99835.72;1999497;81;20220;-78
2021/08/13 09:40:51;;;;;;;11.80;5.79;;;;;;;29.95;50.02;99845.34;1995092;81;20194;-78
2021/08/13 09:44:05;;;;;;;8.39;5.25;;;;;;;30.12;51.51;99838.72;1995880;81;20182;-77
2021/08/13 09:47:09;;;;;;;7.68;5.59;;;;;;;30.28;50.32;99837.38;1991824;78;25005;-75
2021/08/13 09:50:15;;;;;;;6.16;5.46;;;;;;;30.37;49.89;99838.50;1990991;81;20183;-76
2021/08/13 09:53:17;;;;;;;9.64;5.76;;;;;;;30.32;48.67;99848.72;1990333;81;20200;-76
2021/08/13 09:56:46;;;;;;;6.32;4.93;;;;;;;30.31;49.59;99841.66;1991553;81;20823;-76
2021/08/13 10:00:00;;;;;;;5.81;5.25;;;;;;;30.34;50.55;99841.41;1991381;81;20192;-76
2021/08/13 10:03:07;;;;;;;5.20;4.70;;;;;;;30.56;51.88;99843.25;1996387;78;23879;-77
2021/08/13 10:06:10;;;;;;;5.21;4.76;;;;;;;30.63;48.90;99842.66;1996450;81;20311;-77
2021/08/13 10:09:27;;;;;;;6.71;4.80;;;;;;;30.89;49.92;99848.59;1992250;81;20219;-77
2021/08/13 10:12:42;;;;;;;4.57;4.22;;;;;;;31.04;49.87;99845.63;1996571;81;20707;-76
2021/08/13 10:15:46;;;;;;;10.49;4.94;;;;;;;30.73;47.78;99841.94;1995537;78;22819;-76
2021/08/13 10:18:56;;;;;;;5.10;4.70;;;;;;;30.39;47.98;99831.19;1997066;81;20204;-78
2021/08/13 10:21:59;;;;;;;5.91;4.14;;;;;;;30.56;48.58;99833.38;1996619;81;20171;-78
2021/08/13 10:25:02;;;;;;;5.56;4.40;;;;;;;30.67;48.39;99828.00;1996641;81;20695;-77
2021/08/13 10:28:05;;;;;;;5.11;4.36;;;;;;;30.88;47.58;99832.59;1996628;81;20182;-78
2021/08/13 10:31:11;;;;;;;4.97;4.18;;;;;;;30.73;47.20;99829.38;1993488;81;36725;-78
2021/08/13 10:34:14;;;;;;;4.00;3.51;;;;;;;31.09;47.04;99838.91;1991214;81;20200;-77
2021/08/13 10:37:17;;;;;;;7.16;3.38;;;;;;;31.09;46.75;99833.56;1991050;81;20210;-76
2021/08/13 10:40:20;;;;;;;6.16;3.51;;;;;;;31.05;45.50;99832.06;1990777;81;20179;-76
2021/08/13 10:43:33;;;;;;;5.86;3.70;;;;;;;31.08;44.81;99837.22;1990885;81;20194;-78
2021/08/13 10:46:38;;;;;;;12.81;3.85;;;;;;;31.05;43.37;99831.22;1993296;79;22783;-78
2021/08/13 10:49:45;;;;;;;5.14;3.61;;;;;;;31.04;45.25;99829.53;1996435;81;20279;-78
2021/08/13 10:52:48;;;;;;;6.79;3.22;;;;;;;31.02;44.63;99831.47;1996453;81;20171;-77
2021/08/13 10:55:54;;;;;;;4.81;2.76;;;;;;;31.12;45.16;99829.75;1996047;81;20241;-77
2021/08/13 10:58:56;;;;;;;2.96;2.61;;;;;;;30.98;42.17;99841.63;1995647;81;20204;-78
2021/08/13 11:02:15;;;;;;;5.04;3.19;;;;;;;30.84;42.35;99834.69;1995567;78;22465;-78
2021/08/13 11:06:03;;;;;;;4.44;3.22;;;;;;;31.11;43.74;99834.28;1995981;81;20220;-78
2021/08/13 11:09:21;;;;;;;4.05;3.09;;;;;;;31.15;43.57;99843.78;1996122;81;20182;-78
2021/08/13 11:12:24;;;;;;;;;;;;;;;31.29;43.51;99837.28;1996590;81;21033;-78
2021/08/13 11:15:34;;;;;;;3.51;3.19;;;;;;;31.70;42.67;99836.50;1994900;79;22302;-76
2021/08/13 11:18:38;;;;;;;4.05;3.34;;;;;;;31.74;43.69;99845.16;1991222;81;20206;-77
2021/08/13 11:21:47;;;;;;;3.56;2.92;;;;;;;31.75;43.44;99847.72;1991161;81;20231;-78
2021/08/13 11:24:52;;;;;;;4.61;3.34;;;;;;;31.77;43.83;99850.25;1991421;81;20252;-77
2021/08/13 11:28:24;;;;;;;3.56;3.17;;;;;;;31.58;43.41;99851.78;1991212;81;20243;-78
2021/08/13 11:31:49;;;;;;;6.00;3.53;;;;;;;31.36;42.87;99851.03;1992175;78;22909;-76
2021/08/13 11:35:05;;;;;;;3.30;2.96;;;;;;;31.19;43.44;99842.56;1996731;81;20222;-77
2021/08/13 11:38:07;;;;;;;3.88;3.53;;;;;;;31.16;44.28;99842.78;1999391;81;20348;-77
2021/08/13 11:41:22;;;;;;;4.40;3.63;;;;;;;31.21;43.62;99837.91;1996598;81;20174;-77
2021/08/13 11:44:26;;;;;;;7.29;3.81;;;;;;;31.17;43.49;99847.22;1996814;81;20209;-79
2021/08/13 11:47:29;;;;;;;4.91;3.91;;;;;;;31.24;44.64;99850.25;1990964;79;20269;-78
2021/08/13 11:50:32;;;;;;;4.99;3.59;;;;;;;31.31;44.07;99848.75;1991021;81;20350;-77
2021/08/13 11:53:36;;;;;;;5.50;3.81;;;;;;;31.58;45.34;99838.38;1991032;81;20203;-77
2021/08/13 11:56:39;;;;;;;5.46;3.30;;;;;;;31.64;45.21;99850.44;1991619;81;20175;-76
2021/08/13 11:59:43;;;;;;;4.99;3.29;;;;;;;31.55;43.42;99841.31;1991616;81;20643;-77
2021/08/13 12:02:47;;;;;;;6.59;3.30;;;;;;;31.66;43.45;99847.63;1994026;78;21729;-78
2021/08/13 12:05:50;;;;;;;4.32;3.08;;;;;;;31.51;42.84;99837.19;1996355;81;20578;-77
2021/08/13 12:08:53;;;;;;;3.67;3.38;;;;;;;31.40;42.96;99855.19;1996024;81;21026;-78
2021/08/13 12:11:55;;;;;;;3.61;3.00;;;;;;;31.18;42.90;99850.75;1994577;81;20272;-76
2021/08/13 12:14:58;;;;;;;3.79;3.26;;;;;;;31.09;42.50;99844.28;1995963;81;20202;-77
2021/08/13 12:18:02;;;;;;;4.16;3.22;;;;;;;31.17;43.71;99841.84;1995356;78;27307;-75
2021/08/13 12:21:06;;;;;;;4.43;2.97;;;;;;;31.02;42.03;99843.06;1996457;81;20171;-77
2021/08/13 12:24:09;;;;;;;4.32;3.33;;;;;;;31.15;42.49;99848.28;1996000;81;20650;-76
2021/08/13 12:27:12;;;;;;;3.84;3.00;;;;;;;31.20;43.70;99849.63;1995916;81;20236;-77
2021/08/13 12:30:22;;;;;;;9.55;3.22;;;;;;;31.07;43.29;99851.63;1994042;81;20204;-79
2021/08/13 12:33:25;;;;;;;4.00;3.49;;;;;;;30.83;43.94;99853.59;1991044;81;20927;-77
2021/08/13 12:36:28;;;;;;;9.56;3.40;;;;;;;30.54;45.00;99855.91;1991211;81;20240;-81
2021/08/13 12:39:33;;;;;;;5.51;3.45;;;;;;;30.23;46.56;99857.50;1991560;81;20704;-81
2021/08/13 12:42:38;;;;;;;5.00;3.55;;;;;;;30.26;46.42;99866.13;1992355;81;20204;-77
2021/08/13 12:45:41;;;;;;;6.86;3.06;;;;;;;30.27;46.09;99869.66;1992936;79;21504;-76
2021/08/13 12:48:44;;;;;;;4.43;2.80;;;;;;;30.16;45.48;99858.91;1991539;81;20224;-79
2021/08/13 12:51:47;;;;;;;3.85;3.21;;;;;;;30.05;46.71;99870.50;1991766;81;20171;-81
2021/08/13 12:54:55;;;;;;;3.89;3.45;;;;;;;30.24;45.32;99865.41;1991826;81;20268;-84
2021/08/13 12:57:57;;;;;;;3.81;3.08;;;;;;;30.41;44.51;99857.88;1991805;81;20229;-76
2021/08/13 13:01:21;;;;;;;3.45;2.80;;;;;;;30.56;44.02;99856.66;1990691;79;22192;-78
2021/08/13 13:04:38;;;;;;;4.56;3.35;;;;;;;30.84;43.88;99860.66;1992017;81;20319;-80
2021/08/13 13:07:41;;;;;;;4.66;2.88;;;;;;;31.08;43.07;99864.03;1991154;81;20191;-78
2021/08/13 13:10:44;;;;;;;7.07;3.08;;;;;;;31.11;43.29;99861.09;1989495;81;20199;-78
2021/08/13 13:13:48;;;;;;;3.50;3.19;;;;;;;31.22;43.56;99861.09;1990820;81;20771;-79
2021/08/13 13:17:04;;;;;;;3.17;2.80;;;;;;;31.38;42.63;99862.50;1988738;79;21050;-80
2021/08/13 13:20:11;;;;;;;3.13;2.92;;;;;;;31.42;42.35;99856.78;1990941;81;20261;-78
2021/08/13 13:23:35;;;;;;;3.24;2.90;;;;;;;31.32;41.54;99860.34;1990598;81;20644;-75
2021/08/13 13:26:37;;;;;;;;;;;;;;;31.23;43.06;99856.56;1991448;81;20187;-74
2021/08/13 13:29:45;;;;;;;4.59;3.25;;;;;;;31.20;43.53;99868.41;1990741;81;20428;-74
2021/08/13 13:33:07;;;;;;;3.67;3.13;;;;;;;31.18;43.16;99865.00;1996861;78;21202;-74
2021/08/13 13:36:10;;;;;;;3.78;2.75;;;;;;;31.29;42.55;99857.91;1996451;81;20278;-74
2021/08/13 13:39:16;;;;;;;4.99;2.96;;;;;;;31.20;42.89;99860.38;1995800;81;20166;-73
2021/08/13 13:42:27;;;;;;;3.08;2.88;;;;;;;31.12;41.68;99857.44;1995801;81;20194;-73
2021/08/13 13:45:30;;;;;;;6.04;3.41;;;;;;;31.04;43.71;99857.19;1993943;79;22848;-74
2021/08/13 13:48:33;;;;;;;4.56;3.22;;;;;;;30.91;41.51;99852.00;1989892;81;20209;-74
2021/08/13 13:51:35;;;;;;;5.95;2.89;;;;;;;30.83;43.36;99857.13;1988999;81;20307;-73
2021/08/13 13:54:38;;;;;;;3.65;2.78;;;;;;;30.91;43.29;99853.84;1991161;81;20187;-73
2021/08/13 13:57:43;;;;;;;3.10;2.74;;;;;;;30.80;43.33;99853.84;1990834;81;20204;-73
2021/08/13 14:00:45;;;;;;;3.54;2.81;;;;;;;30.74;43.59;99860.56;1990511;79;20532;-73
2021/08/13 14:03:48;;;;;;;3.64;2.67;;;;;;;30.75;44.15;99856.91;1990926;81;20179;-73
2021/08/13 14:06:50;;;;;;;4.86;2.97;;;;;;;30.82;43.45;99852.75;1991141;81;20226;-74
2021/08/13 14:09:53;;;;;;;3.42;2.85;;;;;;;30.71;43.21;99844.72;1990964;81;20316;-74
2021/08/13 14:13:02;;;;;;;5.89;3.16;;;;;;;30.77;42.84;99852.28;1991682;81;20203;-74
2021/08/13 14:16:05;;;;;;;5.10;3.00;;;;;;;30.61;43.03;99859.81;1991898;78;24962;-73
2021/08/13 14:19:07;;;;;;;4.40;2.80;;;;;;;30.62;43.07;99854.34;1995827;81;20267;-74
2021/08/13 14:22:10;;;;;;;3.86;2.96;;;;;;;30.56;42.78;99851.28;1996260;81;20227;-74
2021/08/13 14:25:19;;;;;;;2.79;2.59;;;;;;;30.65;43.47;99856.78;1995881;81;20204;-74
2021/08/13 14:28:22;;;;;;;4.95;2.80;;;;;;;30.78;43.97;99850.44;1996348;81;20652;-72